Terminal Aerodrome Forecast
Issued by NWS Mt. Holly, NJ

Home | Current Version | Previous Version | Text Only | Print | Product List | Glossary On
Versions: 1 2 3 4 5 6 7 8 9 10 11 12 13 14 15 16 17 18 19 20 21 22 23
412
FTUS41 KPHI 172353 AAA
TAFILG
TAF AMD
KILG 172353Z 1800/1824 18009KT P6SM VCSH BKN120
     FM180200 18009KT P6SM VCTS BKN040CB
     FM181000 18008KT P6SM BKN060 PROB30 1810/1813 4SM -TSRA
      OVC040CB
     FM181300 19007KT P6SM OVC070 PROB30 1813/1816 4SM -TSRA
      OVC040CB
     FM181600 19007KT 6SM -SHRA OVC110 PROB30 1816/1818 4SM TS
      OVC040CB
     FM181800 19008KT 6SM SHRA BKN130 PROB30 1818/1819 4SM TS
      OVC040CB
     FM181900 18008KT 6SM SHRA VCTS BKN130CB=

USA.gov is the U.S. government's official web portal to all federal, state and local government web resources and services.